Time;durP1;ratioP1;P1;durP2;ratioP2;P2;SDS_P1;SDS_P2;PMS_P1;PMS_P2;Temp;Humidity;BMP_temperature;BMP_pressure;BME280_temperature;BME280_humidity;BME280_pressure;Samples;Min_cycle;Max_cycle;Signal;HPM_P1;HPM_P2
2023/08/09 04:02:32;;;;;;;;;;;;;;;;;;;;;
2023/08/09 04:05:29;;;;;;;;;;;;;;;14.65;64.95;99085.98;109868;1240;97818;-91
2023/08/09 04:08:10;;;;;;;;;;;;;;;;;;;;;
2023/08/09 04:10:59;;;;;;;;;;;;;;;14.68;64.83;99082.10;109979;1228;96560;-91
2023/08/09 04:15:03;;;;;;;;;;;;;;;14.69;65.02;99082.77;109847;1234;96582;-91
2023/08/09 04:17:48;;;;;;;;;;;;;;;14.71;64.90;99082.02;110273;1229;109381;-92
2023/08/09 04:20:23;;;;;;;;;;;;;;;14.71;64.83;99082.45;109800;1228;96481;-93
2023/08/09 04:23:17;;;;;;;;;;;;;;;14.73;64.95;99082.93;109638;1228;106064;-90
2023/08/09 04:25:46;;;;;;;;;;;;;;;14.77;65.00;99084.59;109672;1237;96554;-91
2023/08/09 04:28:18;;;;;;;;;;;;;;;14.79;65.03;99084.27;109585;1234;96592;-90
2023/08/09 04:30:46;;;;;;;;;;;;;;;14.81;65.22;99086.32;109726;1229;109125;-89
2023/08/09 04:33:13;;;;;;;;;;;;;;;14.85;65.06;99087.25;110008;1232;96700;-92
2023/08/09 04:36:34;;;;;;;;;;;;;;;14.88;65.19;99083.20;109815;1228;108046;-91
2023/08/09 04:43:46;;;;;;;;;;;;;;;14.98;65.11;99091.97;109759;1232;95958;-92
2023/08/09 04:46:32;;;;;;;;;;;;;;;15.03;65.21;99091.55;110315;1232;109892;-93
2023/08/09 04:49:29;;;;;;;;;;;;;;;15.05;65.19;99095.30;109718;1235;96569;-91
2023/08/09 04:52:13;;;;;;;;;;;;;;;;;;;;;
2023/08/09 04:57:57;;;;;;;;;;;;;;;;;;;;;
2023/08/09 05:11:18;;;;;;;;;;;;;;;15.47;65.20;99089.52;111109;1229;95613;-91
2023/08/09 05:16:40;;;;;;;;;;;;;;;;;;;;;
2023/08/09 05:26:06;;;;;;;;;;;;;;;15.84;65.43;99101.30;110284;1231;96532;-91
2023/08/09 05:34:45;;;;;;;;;;;;;;;16.11;65.52;99094.86;110347;1232;96527;-91
2023/08/09 05:43:14;;;;;;;;;;;;;;;16.37;65.61;99088.38;109806;1232;97379;-91
2023/08/09 05:46:37;;;;;;;;;;;;;;;;;;;;;
2023/08/09 05:50:21;;;;;;;;;;;;;;;;;;;;;
2023/08/09 05:52:57;;;;;;;;;;;;;;;16.69;65.63;99094.29;110235;1234;106216;-93
2023/08/09 05:55:58;;;;;;;;;;;;;;;;;;;;;
2023/08/09 06:07:58;;;;;;;;;;;;;;;17.24;65.67;99106.64;110122;1234;107512;-90
2023/08/09 06:11:10;;;;;;;;;;;;;;;17.35;65.52;99103.10;109721;1236;96650;-90
2023/08/09 06:14:13;;;;;;;;;;;;;;;17.43;65.50;99101.58;109700;1237;96453;-91
2023/08/09 06:16:50;;;;;;;;;;;;;;;17.54;65.64;99102.79;109632;1232;108949;-92
2023/08/09 06:19:43;;;;;;;;;;;;;;;17.61;65.53;99103.48;109734;1234;95453;-91
2023/08/09 06:25:48;;;;;;;;;;;;;;;;;;;;;
2023/08/09 06:28:44;;;;;;;;;;;;;;;;;;;;;
2023/08/09 06:31:57;;;;;;;;;;;;;;;;;;;;;
2023/08/09 06:41:44;;;;;;;;;;;;;;;;;;;;;
2023/08/09 06:51:20;;;;;;;;;;;;;;;;;;;;;
2023/08/09 06:53:41;;;;;;;;;;;;;;;18.37;65.13;99108.52;110266;1231;96621;-90
2023/08/09 06:56:23;;;;;;;;;;;;;;;18.34;65.15;99109.69;110201;1235;96627;-92
2023/08/09 06:59:37;;;;;;;;;;;;;;;18.36;65.37;99108.61;109915;1237;110138;-91
2023/08/09 07:05:31;;;;;;;;;;;;;;;18.41;65.39;99106.14;110306;1233;107251;-91
2023/08/09 07:08:01;;;;;;;;;;;;;;;18.51;65.33;99109.40;109767;1235;96550;-92
2023/08/09 07:10:33;;;;;;;;;;;;;;;18.61;65.38;99104.77;109804;1231;96533;-91
2023/08/09 07:13:00;;;;;;;;;;;;;;;18.68;65.39;99103.29;109833;1233;109804;-91
2023/08/09 07:18:40;;;;;;;;;;;;;;;18.84;65.35;99110.45;110527;1230;107120;-90
2023/08/09 07:21:09;;;;;;;;;;;;;;;18.86;65.14;99108.02;110238;1230;96634;-89
2023/08/09 07:23:39;;;;;;;;;;;;;;;18.86;65.22;99107.29;109531;1237;96542;-90
2023/08/09 07:26:48;;;;;;;;;;;;;;;18.92;65.32;99108.68;109534;1237;109960;-92
2023/08/09 07:29:34;;;;;;;;;;;;;;;;;;;;;
2023/08/09 07:36:21;;;;;;;;;;;;;;;19.02;65.17;99100.21;109658;1231;96580;-92
2023/08/09 07:39:53;;;;;;;;;;;;;;;19.06;65.12;99103.29;109722;1231;96583;-92
2023/08/09 07:42:20;;;;;;;;;;;;;;;19.06;65.09;99107.90;109858;1235;110276;-90
2023/08/09 07:45:48;;;;;;;;;;;;;;;19.02;64.87;99106.52;109709;1244;97156;-90
2023/08/09 07:48:51;;;;;;;;;;;;;;;;;;;;;
2023/08/09 07:52:33;;;;;;;;;;;;;;;18.96;65.08;99111.29;109264;1231;96563;-91
2023/08/09 07:55:16;;;;;;;;;;;;;;;;;;;;;
2023/08/09 08:05:41;;;;;;;;;;;;;;;19.01;64.99;99112.73;109623;1231;107216;-91
2023/08/09 08:08:11;;;;;;;;;;;;;;;18.97;65.00;99113.70;109502;1231;96540;-92
2023/08/09 08:10:41;;;;;;;;;;;;;;;18.96;65.01;99117.23;109410;1236;96490;-91
2023/08/09 08:13:35;;;;;;;;;;;;;;;18.94;64.89;99119.56;109671;1238;110131;-92
2023/08/09 08:17:08;;;;;;;;;;;;;;;18.94;64.96;99118.66;109544;1235;96536;-92
2023/08/09 08:19:56;;;;;;;;;;;;;;;18.98;65.06;99119.50;109603;1235;107502;-92
2023/08/09 08:23:42;;;;;;;;;;;;;;;19.04;64.78;99121.41;109415;1239;96640;-92
2023/08/09 08:26:19;;;;;;;;;;;;;;;19.08;64.96;99115.83;109697;1231;96575;-91
2023/08/09 08:31:54;;;;;;;;;;;;;;;19.16;64.94;99114.80;109783;1243;96667;-90
2023/08/09 08:35:02;;;;;;;;;;;;;;;19.17;64.97;99115.29;109635;1231;107224;-91
2023/08/09 08:37:31;;;;;;;;;;;;;;;19.24;65.05;99110.69;109730;1231;96563;-91
2023/08/09 08:53:32;;;;;;;;;;;;;;;19.62;64.97;99118.26;109854;1237;96560;-92
2023/08/09 08:56:22;;;;;;;;;;;;;;;19.64;64.75;99124.84;109554;1238;96574;-91
2023/08/09 08:59:36;;;;;;;;;;;;;;;19.65;64.70;99119.34;109590;1237;109483;-92
2023/08/09 09:02:23;;;;;;;;;;;;;;;19.65;64.79;99122.36;109215;1239;96621;-91
2023/08/09 09:05:38;;;;;;;;;;;;;;;19.69;64.46;99118.93;110312;1234;106834;-92
2023/08/09 09:08:24;;;;;;;;;;;;;;;19.71;64.66;99118.35;109717;1231;96465;-91
2023/08/09 09:11:16;;;;;;;;;;;;;;;19.74;64.49;99116.91;109836;1231;96784;-92
2023/08/09 09:14:33;;;;;;;;;;;;;;;19.78;64.65;99117.56;110120;1234;109728;-91
2023/08/09 09:17:17;;;;;;;;;;;;;;;19.83;64.73;99112.40;110093;1234;96366;-92
2023/08/09 09:20:29;;;;;;;;;;;;;;;19.88;64.47;99114.54;109964;1236;107202;-92
2023/08/09 09:29:42;;;;;;;;;;;;;;;19.90;64.37;99114.48;110734;1232;109781;-92
2023/08/09 09:32:12;;;;;;;;;;;;;;;19.90;64.32;99110.54;109673;1237;96461;-91
2023/08/09 09:35:10;;;;;;;;;;;;;;;19.91;64.19;99113.11;109272;1238;107366;-91
2023/08/09 09:37:57;;;;;;;;;;;;;;;19.90;64.14;99110.55;109483;1238;96471;-91
2023/08/09 09:41:10;;;;;;;;;;;;;;;19.91;64.33;99108.61;109720;1232;96379;-91
2023/08/09 09:50:23;;;;;;;;;;;;;;;19.89;64.12;99106.45;109775;1235;107004;-92
2023/08/09 09:52:53;;;;;;;;;;;;;;;19.92;64.32;99106.15;109860;1235;97390;-91
2023/08/09 09:55:45;;;;;;;;;;;;;;;19.92;64.12;99103.31;109486;1236;96464;-91
2023/08/09 10:02:33;;;;;;;;;;;;;;;;;;;;;
2023/08/09 10:12:04;;;;;;;;;;;;;;;20.34;64.25;99089.56;110075;1235;96617;-90
2023/08/09 10:17:20;;;;;;;;;;;;;;;20.70;64.15;99078.50;109865;1236;96527;-91
2023/08/09 10:19:48;;;;;;;;;;;;;;;20.86;64.03;99084.98;109925;1237;107512;-91
2023/08/09 10:32:06;;;;;;;;;;;;;;;;;;;;;
2023/08/09 10:35:04;;;;;;;;;;;;;;;21.44;63.63;99078.25;109786;1243;107255;-91
2023/08/09 10:40:38;;;;;;;;;;;;;;;21.50;63.64;99068.94;110432;1230;96488;-91
2023/08/09 10:44:29;;;;;;;;;;;;;;;21.47;63.56;99069.06;109812;1230;111197;-92
2023/08/09 10:47:30;;;;;;;;;;;;;;;21.40;63.17;99065.48;110615;1230;96554;-91
2023/08/09 10:56:44;;;;;;;;;;;;;;;21.32;63.27;99057.00;109763;1230;96663;-91
2023/08/09 10:59:20;;;;;;;;;;;;;;;21.33;63.04;99062.25;109833;1238;109414;-91
2023/08/09 11:02:28;;;;;;;;;;;;;;;;;;;;;
2023/08/09 11:05:57;;;;;;;;;;;;;;;21.37;62.97;99063.58;110094;1230;107756;-92
2023/08/09 11:09:02;;;;;;;;;;;;;;;21.39;62.89;99061.08;110473;1230;96517;-92
2023/08/09 11:14:54;;;;;;;;;;;;;;;21.42;62.68;99058.79;109899;1234;109763;-91
2023/08/09 11:18:02;;;;;;;;;;;;;;;21.43;62.60;99054.17;109779;1231;97271;-92
2023/08/09 11:24:07;;;;;;;;;;;;;;;21.50;62.61;99046.52;110211;1233;96467;-91
2023/08/09 11:29:47;;;;;;;;;;;;;;;21.63;62.62;99038.12;109245;1237;110089;-91
2023/08/09 11:32:26;;;;;;;;;;;;;;;21.72;62.43;99037.23;109629;1234;97403;-92
2023/08/09 11:35:43;;;;;;;;;;;;;;;21.79;62.48;99032.48;109734;1232;107632;-91
2023/08/09 11:38:50;;;;;;;;;;;;;;;21.81;62.55;99032.36;109773;1234;96512;-94
2023/08/09 11:41:23;;;;;;;;;;;;;;;21.84;62.48;99035.98;109897;1239;96475;-91
2023/08/09 11:43:50;;;;;;;;;;;;;;;21.87;62.51;99035.11;109197;1240;110375;-92
2023/08/09 11:46:26;;;;;;;;;;;;;;;21.88;62.20;99035.33;109185;1237;96793;-92
2023/08/09 11:49:11;;;;;;;;;;;;;;;21.89;62.24;99037.77;109223;1239;107493;-93
2023/08/09 11:51:38;;;;;;;;;;;;;;;21.91;62.26;99039.34;108949;1240;96664;-89
2023/08/09 11:54:08;;;;;;;;;;;;;;;21.94;62.03;99044.95;109152;1239;97486;-92
2023/08/09 11:56:36;;;;;;;;;;;;;;;21.98;62.27;99042.35;109257;1235;110036;-91
2023/08/09 11:59:09;;;;;;;;;;;;;;;22.04;62.09;99045.42;109608;1237;97440;-91
2023/08/09 12:01:55;;;;;;;;;;;;;;;22.10;62.10;99038.14;109672;1232;107116;-91
2023/08/09 12:04:43;;;;;;;;;;;;;;;22.17;62.05;99034.56;109908;1232;96575;-90
2023/08/09 12:07:17;;;;;;;;;;;;;;;22.28;62.39;99036.99;110480;1233;95379;-92
2023/08/09 12:10:03;;;;;;;;;;;;;;;22.42;62.02;99027.92;110192;1232;109718;-92
2023/08/09 12:12:57;;;;;;;;;;;;;;;22.50;61.92;99024.83;109906;1235;97010;-92
2023/08/09 12:15:26;;;;;;;;;;;;;;;22.54;61.78;99026.84;109921;1235;106010;-91
2023/08/09 12:17:57;;;;;;;;;;;;;;;22.56;61.65;99027.73;109971;1234;96473;-90
2023/08/09 12:20:44;;;;;;;;;;;;;;;22.53;61.53;99028.83;109772;1235;96473;-91
2023/08/09 12:23:11;;;;;;;;;;;;;;;22.48;61.63;99030.69;109745;1232;110038;-92
2023/08/09 12:25:43;;;;;;;;;;;;;;;22.43;61.48;99038.52;109903;1232;97896;-91
2023/08/09 12:28:39;;;;;;;;;;;;;;;22.34;61.67;99059.25;110146;1235;108246;-92
2023/08/09 12:31:17;;;;;;;;;;;;;;;22.20;61.12;99078.32;109937;1232;96662;-93
2023/08/09 12:34:04;;;;;;;;;;;;;;;21.79;60.79;99077.72;109966;1237;96639;-93
2023/08/09 12:39:42;;;;;;;;;;;;;;;21.04;61.22;99077.68;110013;1233;96461;-91
2023/08/09 12:42:30;;;;;;;;;;;;;;;20.79;61.20;99086.91;109867;1235;107461;-92
2023/08/09 12:45:23;;;;;;;;;;;;;;;20.52;61.36;99075.84;110133;1232;96515;-92
2023/08/09 12:48:01;;;;;;;;;;;;;;;20.42;61.34;99077.02;110410;1234;96605;-93
2023/08/09 12:54:14;;;;;;;;;;;;;;;20.59;62.01;99076.11;110474;1233;96452;-93
2023/08/09 13:03:07;;;;;;;;;;;;;;;20.82;62.13;99072.23;110316;1234;96369;-90
2023/08/09 13:05:55;;;;;;;;;;;;;;;20.84;62.00;99069.90;110329;1233;110344;-92
2023/08/09 13:08:41;;;;;;;;;;;;;;;20.88;62.00;99068.55;111000;1230;95306;-92
2023/08/09 13:11:55;;;;;;;;;;;;;;;20.93;62.19;99065.83;110432;1230;106706;-91
2023/08/09 13:18:22;;;;;;;;;;;;;;;21.05;62.09;99063.74;110295;1234;96525;-91
2023/08/09 13:23:58;;;;;;;;;;;;;;;21.26;62.38;99059.66;110170;1234;96508;-94
2023/08/09 13:32:55;;;;;;;;;;;;;;;21.56;62.49;99050.98;110361;1233;96308;-92
2023/08/09 13:35:29;;;;;;;;;;;;;;;21.61;62.43;99043.47;110258;1230;110940;-93
2023/08/09 13:37:58;;;;;;;;;;;;;;;21.66;62.81;99038.64;110309;1234;96554;-93
2023/08/09 13:40:44;;;;;;;;;;;;;;;21.73;62.76;99028.30;110118;1231;96566;-93
2023/08/09 13:43:39;;;;;;;;;;;;;;;21.82;62.89;99017.70;110247;1233;96487;-92
2023/08/09 13:46:08;;;;;;;;;;;;;;;21.88;62.95;99011.21;110232;1233;97367;-91
2023/08/09 13:48:57;;;;;;;;;;;;;;;21.89;62.82;99010.59;110576;1231;108434;-91
2023/08/09 13:52:02;;;;;;;;;;;;;;;21.85;62.84;99008.64;110840;1231;95939;-89
2023/08/09 13:54:48;;;;;;;;;;;;;;;21.84;62.53;99010.06;110185;1234;108099;-92
2023/08/09 14:00:29;;;;;;;;;;;;;;;21.83;62.56;99015.31;109953;1232;96487;-91
2023/08/09 14:02:58;;;;;;;;;;;;;;;21.89;62.55;99017.72;109550;1232;108925;-91
2023/08/09 14:06:03;;;;;;;;;;;;;;;21.92;62.70;99025.48;109934;1235;97203;-92
2023/08/09 14:11:51;;;;;;;;;;;;;;;21.93;62.62;99026.83;110032;1237;96573;-93
2023/08/09 14:14:39;;;;;;;;;;;;;;;21.93;62.50;99025.90;109971;1236;96692;-92
2023/08/09 14:17:37;;;;;;;;;;;;;;;21.91;62.58;99028.20;110124;1234;109917;-92
2023/08/09 14:24:01;;;;;;;;;;;;;;;21.81;62.51;99023.02;110138;1232;108869;-93
2023/08/09 14:29:46;;;;;;;;;;;;;;;21.71;62.29;99021.34;109881;1234;97902;-92
2023/08/09 14:32:13;;;;;;;;;;;;;;;21.61;61.92;99024.87;109559;1231;108414;-91
2023/08/09 14:37:55;;;;;;;;;;;;;;;21.44;61.83;99020.93;109737;1234;109372;-90
2023/08/09 14:41:21;;;;;;;;;;;;;;;;;;;;;
2023/08/09 14:44:10;;;;;;;;;;;;;;;21.33;61.88;99030.73;109650;1237;96564;-91
2023/08/09 14:46:42;;;;;;;;;;;;;;;21.24;62.16;99036.98;109544;1231;108459;-91
2023/08/09 14:49:15;;;;;;;;;;;;;;;21.17;62.09;99040.84;109404;1231;96672;-91
2023/08/09 14:52:38;;;;;;;;;;;;;;;21.05;62.20;99051.31;109599;1237;108911;-91
2023/08/09 14:55:09;;;;;;;;;;;;;;;20.96;62.14;99062.86;109477;1238;96464;-91
2023/08/09 14:57:40;;;;;;;;;;;;;;;20.88;62.26;99080.59;109314;1237;96582;-91
2023/08/09 15:00:11;;;;;;;;;;;;;;;20.74;62.27;99086.10;108941;1231;96701;-91
2023/08/09 15:02:38;;;;;;;;;;;;;;;20.66;62.35;99102.39;108976;1236;96534;-91
2023/08/09 15:05:08;;;;;;;;;;;;;;;20.50;62.22;99112.33;109113;1237;108293;-91
2023/08/09 15:07:36;;;;;;;;;;;;;;;20.28;62.27;99119.10;109055;1231;96494;-92
2023/08/09 15:10:05;;;;;;;;;;;;;;;20.07;62.48;99124.30;109313;1235;96552;-92
2023/08/09 15:12:34;;;;;;;;;;;;;;;19.92;62.66;99119.87;109232;1236;110151;-91
2023/08/09 15:15:04;;;;;;;;;;;;;;;19.79;62.79;99124.96;109677;1231;96534;-90
2023/08/09 15:17:32;;;;;;;;;;;;;;;19.70;62.88;99125.14;109334;1238;107441;-91
2023/08/09 15:20:00;;;;;;;;;;;;;;;19.61;62.92;99123.41;109348;1238;96595;-92
2023/08/09 15:22:27;;;;;;;;;;;;;;;19.49;62.94;99125.98;109280;1234;96589;-91
2023/08/09 15:24:58;;;;;;;;;;;;;;;19.35;62.98;99130.31;109180;1237;96529;-90
2023/08/09 15:27:25;;;;;;;;;;;;;;;19.19;63.20;99135.31;109078;1237;96429;-92
2023/08/09 15:29:56;;;;;;;;;;;;;;;18.98;63.07;99142.04;109225;1232;107148;-91
2023/08/09 15:32:25;;;;;;;;;;;;;;;18.83;63.21;99152.54;109228;1237;97500;-91
2023/08/09 15:34:53;;;;;;;;;;;;;;;18.75;63.35;99159.79;109116;1237;96618;-90
2023/08/09 15:37:20;;;;;;;;;;;;;;;18.68;63.35;99165.42;109169;1238;96474;-91
2023/08/09 15:39:56;;;;;;;;;;;;;;;18.63;63.34;99167.41;109362;1232;96388;-92
2023/08/09 15:42:23;;;;;;;;;;;;;;;18.53;63.41;99175.23;109125;1238;107185;-90
2023/08/09 15:44:58;;;;;;;;;;;;;;;18.44;63.51;99174.54;109500;1234;96615;-91
2023/08/09 15:47:37;;;;;;;;;;;;;;;18.40;63.59;99174.61;109368;1237;96643;-92
2023/08/09 15:50:43;;;;;;;;;;;;;;;18.37;63.75;99167.75;109371;1237;109686;-91
2023/08/09 15:53:12;;;;;;;;;;;;;;;18.39;63.79;99155.52;109213;1231;96498;-91
2023/08/09 15:56:03;;;;;;;;;;;;;;;18.42;63.82;99159.67;109364;1237;107483;-91
2023/08/09 15:58:30;;;;;;;;;;;;;;;18.44;63.76;99169.15;109723;1236;96569;-92
2023/08/09 16:01:17;;;;;;;;;;;;;;;18.49;64.04;99170.68;110092;1232;96566;-91
2023/08/09 16:04:04;;;;;;;;;;;;;;;18.51;64.09;99167.94;110164;1237;109611;-92
2023/08/09 16:06:32;;;;;;;;;;;;;;;18.48;64.09;99161.63;109788;1236;96570;-92
2023/08/09 16:08:59;;;;;;;;;;;;;;;18.49;64.26;99158.77;109366;1238;106390;-92
2023/08/09 16:11:25;;;;;;;;;;;;;;;18.54;64.26;99154.85;109469;1240;97335;-92
2023/08/09 16:13:52;;;;;;;;;;;;;;;18.56;64.31;99148.13;109556;1232;96458;-91
2023/08/09 16:16:21;;;;;;;;;;;;;;;18.53;64.27;99149.16;109421;1235;96538;-90
2023/08/09 16:19:33;;;;;;;;;;;;;;;18.51;64.38;99148.91;109661;1235;96291;-91
2023/08/09 16:22:07;;;;;;;;;;;;;;;18.47;64.47;99149.44;109625;1232;107176;-93
2023/08/09 16:24:34;;;;;;;;;;;;;;;18.47;64.47;99149.27;109422;1231;97701;-91
2023/08/09 16:27:23;;;;;;;;;;;;;;;18.42;64.56;99146.01;109259;1237;96591;-91
2023/08/09 16:29:51;;;;;;;;;;;;;;;18.37;64.60;99144.26;109324;1231;108716;-92
2023/08/09 16:32:19;;;;;;;;;;;;;;;18.37;64.80;99145.61;109233;1231;97398;-91
2023/08/09 16:35:10;;;;;;;;;;;;;;;;;;;;;
2023/08/09 16:38:34;;;;;;;;;;;;;;;18.34;64.78;99142.73;109399;1237;96560;-91
2023/08/09 16:41:08;;;;;;;;;;;;;;;18.29;64.71;99142.38;109288;1237;96607;-92
2023/08/09 16:44:36;;;;;;;;;;;;;;;18.20;64.85;99139.36;109316;1235;108866;-92
2023/08/09 16:47:06;;;;;;;;;;;;;;;18.22;64.96;99144.04;109445;1237;96523;-91
2023/08/09 16:49:38;;;;;;;;;;;;;;;18.24;65.02;99150.10;109171;1242;107475;-91
2023/08/09 16:52:06;;;;;;;;;;;;;;;18.24;65.14;99150.35;109517;1237;96492;-91
2023/08/09 16:55:18;;;;;;;;;;;;;;;18.24;65.20;99151.66;109365;1237;96622;-90
2023/08/09 16:57:50;;;;;;;;;;;;;;;18.22;65.22;99148.52;109407;1234;110127;-91
2023/08/09 17:00:18;;;;;;;;;;;;;;;18.15;65.17;99149.55;109255;1231;96599;-91
2023/08/09 17:07:31;;;;;;;;;;;;;;;18.13;65.53;99160.31;109339;1232;96580;-91
2023/08/09 17:10:15;;;;;;;;;;;;;;;18.14;65.64;99162.84;109465;1232;96564;-91
2023/08/09 17:12:45;;;;;;;;;;;;;;;18.10;65.44;99159.52;109301;1232;96577;-93
2023/08/09 17:15:14;;;;;;;;;;;;;;;18.07;65.61;99159.88;109130;1238;96550;-90
2023/08/09 17:17:42;;;;;;;;;;;;;;;18.06;65.64;99156.20;109281;1236;107112;-91
2023/08/09 17:20:39;;;;;;;;;;;;;;;18.07;65.76;99152.67;109154;1236;96616;-90
2023/08/09 17:23:06;;;;;;;;;;;;;;;18.08;65.81;99156.69;109287;1241;96632;-91
2023/08/09 17:25:34;;;;;;;;;;;;;;;18.09;65.81;99157.86;109234;1237;97812;-92
2023/08/09 17:28:01;;;;;;;;;;;;;;;18.07;65.90;99161.29;109208;1237;96710;-91
2023/08/09 17:30:53;;;;;;;;;;;;;;;18.05;65.92;99163.69;109215;1244;96517;-90
2023/08/09 17:36:54;;;;;;;;;;;;;;;17.98;66.04;99170.77;109284;1232;96941;-91
2023/08/09 17:39:28;;;;;;;;;;;;;;;17.94;66.11;99171.18;109481;1239;109719;-90
2023/08/09 17:42:46;;;;;;;;;;;;;;;17.85;66.03;99162.21;109300;1237;96528;-92
2023/08/09 17:45:13;;;;;;;;;;;;;;;17.79;66.21;99168.81;109285;1237;107499;-91
2023/08/09 17:47:43;;;;;;;;;;;;;;;17.74;66.26;99160.77;109247;1238;96630;-92
2023/08/09 17:50:11;;;;;;;;;;;;;;;17.73;66.25;99160.56;109560;1230;96483;-92
2023/08/09 17:52:43;;;;;;;;;;;;;;;17.73;66.25;99164.31;109359;1238;96557;-91
2023/08/09 17:55:31;;;;;;;;;;;;;;;17.73;66.38;99165.23;109442;1232;96351;-91
2023/08/09 17:57:58;;;;;;;;;;;;;;;17.72;66.29;99163.02;109382;1240;107590;-92
2023/08/09 18:00:28;;;;;;;;;;;;;;;17.71;66.34;99162.20;109237;1237;96705;-90
2023/08/09 18:02:58;;;;;;;;;;;;;;;17.71;66.54;99163.60;109441;1231;96564;-90
2023/08/09 18:05:43;;;;;;;;;;;;;;;;;;;;;
2023/08/09 18:08:19;;;;;;;;;;;;;;;17.73;66.68;99158.27;109447;1238;96654;-91
2023/08/09 18:10:53;;;;;;;;;;;;;;;17.73;66.61;99156.48;109925;1232;96523;-91
2023/08/09 18:13:21;;;;;;;;;;;;;;;17.70;66.46;99161.23;109930;1231;96571;-91
2023/08/09 18:15:55;;;;;;;;;;;;;;;17.70;66.53;99163.23;109367;1232;96733;-91
2023/08/09 18:18:27;;;;;;;;;;;;;;;17.70;66.75;99165.52;109466;1244;109721;-92
